Time;durP1;ratioP1;P1;durP2;ratioP2;P2;SDS_P1;SDS_P2;PMS_P1;PMS_P2;Temp;Humidity;BMP_temperature;BMP_pressure;BME280_temperature;BME280_humidity;BME280_pressure;Samples;Min_cycle;Max_cycle;Signal;HPM_P1;HPM_P2
2021/12/06 00:00:45;;;;;;;39.50;25.63;;;205.20;2252.80;;;;;;5009980;28;20092;-66
2021/12/06 00:03:12;;;;;;;;;;;205.30;2252.80;;;;;;5010340;28;20026;-61
2021/12/06 00:05:38;;;;;;;25.10;15.82;;;205.40;2252.80;;;;;;5009847;28;19905;-66
2021/12/06 00:08:04;;;;;;;39.25;24.10;;;205.30;2252.80;;;;;;5010036;28;20026;-56
2021/12/06 00:10:30;;;;;;;45.50;28.92;;;205.40;2252.80;;;;;;5009839;28;20065;-58
2021/12/06 00:12:56;;;;;;;28.73;17.13;;;205.40;2252.80;;;;;;5009871;28;20072;-57
2021/12/06 00:15:22;;;;;;;96.18;60.90;;;205.20;2252.80;;;;;;5010013;28;20113;-59
2021/12/06 00:17:48;;;;;;;30.92;23.55;;;205.30;2252.80;;;;;;5009938;28;20472;-55
2021/12/06 00:20:14;;;;;;;70.88;43.42;;;205.30;2252.80;;;;;;5010122;28;20026;-57
2021/12/06 00:22:41;;;;;;;20.27;15.07;;;205.20;2252.80;;;;;;5009530;28;20054;-55
2021/12/06 00:25:09;;;;;;;43.85;28.60;;;205.30;2252.80;;;;;;5009737;28;20065;-55
2021/12/06 00:27:38;;;;;;;18.85;13.13;;;205.40;2252.80;;;;;;5009839;28;20026;-56
2021/12/06 00:30:06;;;;;;;31.85;23.20;;;205.40;2252.80;;;;;;5009781;28;20038;-57
2021/12/06 00:32:32;;;;;;;16.42;11.93;;;205.40;2252.80;;;;;;5009886;28;20029;-56
2021/12/06 00:34:58;;;;;;;17.23;12.40;;;205.30;2252.80;;;;;;5009870;28;20026;-66
2021/12/06 00:37:31;;;;;;;29.33;19.83;;;205.20;2252.80;;;;;;5009752;28;20049;-66
2021/12/06 00:39:59;;;;;;;25.48;17.88;;;205.20;2252.80;;;;;;5009709;28;20021;-57
2021/12/06 00:42:33;;;;;;;14.48;10.15;;;205.30;2252.80;;;;;;5013438;28;20604;-55
2021/12/06 00:44:59;;;;;;;;;;;205.20;2252.80;;;;;;5013668;28;20029;-56
2021/12/06 00:47:25;;;;;;;29.00;17.95;;;205.20;2252.80;;;;;;5013402;28;19923;-60
2021/12/06 00:49:51;;;;;;;51.25;31.10;;;205.10;2252.80;;;;;;5013058;28;20116;-63
2021/12/06 00:52:18;;;;;;;85.50;48.45;;;205.20;2252.80;;;;;;5012869;28;20125;-59
2021/12/06 00:54:45;;;;;;;178.57;101.88;;;205.20;2252.80;;;;;;5013048;28;20025;-59
2021/12/06 00:57:12;;;;;;;66.53;35.42;;;205.30;2252.80;;;;;;5012819;28;20030;-56
2021/12/06 00:59:39;;;;;;;28.25;17.85;;;205.40;2252.80;;;;;;5012793;28;20026;-61
2021/12/06 01:02:07;;;;;;;62.30;38.05;;;205.30;2252.80;;;;;;5013085;28;20090;-58
2021/12/06 01:04:35;;;;;;;34.33;23.50;;;205.40;2252.80;;;;;;5012989;28;20558;-57
2021/12/06 01:07:01;;;;;;;25.17;16.40;;;205.40;2252.80;;;;;;5012802;28;20029;-55
2021/12/06 01:09:27;;;;;;;45.53;30.88;;;205.40;2252.80;;;;;;5012750;28;20040;-61
2021/12/06 01:11:52;;;;;;;38.03;22.95;;;205.40;2252.80;;;;;;5012939;28;20022;-52
2021/12/06 01:14:20;;;;;;;16.73;12.68;;;205.40;2252.80;;;;;;5012801;28;20022;-55
2021/12/06 01:16:46;;;;;;;13.95;10.57;;;205.40;2252.80;;;;;;5012649;28;20033;-55
2021/12/06 01:19:12;;;;;;;19.80;14.10;;;205.40;2252.80;;;;;;5012833;28;20463;-55
2021/12/06 01:21:47;;;;;;;25.67;17.67;;;205.50;2252.80;;;;;;5012357;28;20511;-55
2021/12/06 01:24:16;;;;;;;62.60;35.22;;;205.40;2252.80;;;;;;5012491;28;20046;-55
2021/12/06 01:31:48;;;;;;;24.30;16.85;;;205.20;2252.80;;;;;;5012353;28;20112;-66
2021/12/06 01:39:47;;;;;;;18.95;13.18;;;205.20;2252.80;;;;;;5012485;28;20077;-55
2021/12/06 01:42:13;;;;;;;19.15;12.70;;;205.10;2252.80;;;;;;5012437;28;20021;-55
2021/12/06 01:44:42;;;;;;;21.75;12.60;;;205.00;2252.80;;;;;;5012196;28;20037;-55
2021/12/06 01:47:21;;;;;;;24.80;15.93;;;204.90;2252.80;;;;;;5011930;28;20029;-55
2021/12/06 01:49:50;;;;;;;17.85;11.50;;;205.20;2252.80;;;;;;5012240;28;20034;-56
2021/12/06 01:52:25;;;;;;;18.25;14.35;;;205.10;2252.80;;;;;;5011236;28;20433;-66
2021/12/06 01:54:51;;;;;;;12.30;8.75;;;205.10;2252.80;;;;;;5011736;28;20092;-56
2021/12/06 01:57:18;;;;;;;26.45;16.30;;;205.00;2252.80;;;;;;5011881;28;20026;-63
2021/12/06 01:59:44;;;;;;;70.97;38.00;;;205.00;2252.80;;;;;;5011905;28;20029;-55
2021/12/06 02:02:11;;;;;;;23.92;14.68;;;205.00;2252.80;;;;;;5011619;28;20479;-54
2021/12/06 02:04:40;;;;;;;11.25;7.72;;;205.00;2252.80;;;;;;5011831;28;20440;-64
2021/12/06 02:07:12;;;;;;;57.40;32.00;;;204.90;2252.80;;;;;;5011829;28;20022;-64
2021/12/06 02:09:38;;;;;;;65.90;34.90;;;204.90;2252.80;;;;;;5011400;28;20048;-60
2021/12/06 02:12:05;;;;;;;97.35;49.65;;;205.00;2252.80;;;;;;5011743;28;20030;-59
2021/12/06 02:14:45;;;;;;;35.88;19.35;;;204.90;2252.80;;;;;;5011368;28;20034;-57
2021/12/06 02:17:24;;;;;;;15.55;9.82;;;205.10;2252.80;;;;;;5011505;28;20068;-54
2021/12/06 02:19:57;;;;;;;15.95;10.23;;;205.10;2252.80;;;;;;4993815;28;20464;-64
2021/12/06 02:22:26;;;;;;;11.75;9.02;;;205.10;2252.80;;;;;;5011323;28;20084;-54
2021/12/06 02:24:54;;;;;;;13.90;10.52;;;205.00;2252.80;;;;;;5011513;28;20498;-54
2021/12/06 02:27:22;;;;;;;14.77;11.63;;;204.90;2252.80;;;;;;5011126;28;20029;-55
2021/12/06 02:29:50;;;;;;;28.77;21.73;;;205.20;2252.80;;;;;;5011048;28;20476;-63
2021/12/06 02:32:16;;;;;;;11.75;10.32;;;205.20;2252.80;;;;;;5011496;28;20256;-55
2021/12/06 02:34:48;;;;;;;12.18;10.88;;;205.20;2252.80;;;;;;5011396;28;20030;-53
2021/12/06 02:37:17;;;;;;;22.98;15.07;;;205.20;2252.80;;;;;;5011360;28;20365;-64
2021/12/06 02:39:43;;;;;;;13.95;10.82;;;205.20;2252.80;;;;;;5011285;28;20044;-54
2021/12/06 02:42:11;;;;;;;15.00;10.15;;;205.10;2252.80;;;;;;5010902;28;20026;-61
2021/12/06 02:44:38;;;;;;;31.52;19.38;;;205.10;2252.80;;;;;;5010905;28;20087;-64
2021/12/06 02:47:04;;;;;;;23.67;15.20;;;205.20;2252.80;;;;;;5011075;28;20065;-64
2021/12/06 02:49:31;;;;;;;40.95;24.48;;;205.20;2252.80;;;;;;5010720;28;20053;-54
2021/12/06 02:51:57;;;;;;;17.40;12.60;;;205.10;2252.80;;;;;;5010863;28;20033;-54
2021/12/06 02:54:24;;;;;;;22.42;14.77;;;205.20;2252.80;;;;;;5010893;28;20041;-54
2021/12/06 02:57:07;;;;;;;29.92;20.02;;;205.30;2252.80;;;;;;5010749;28;20395;-55
2021/12/06 02:59:34;;;;;;;19.95;14.25;;;205.30;2252.80;;;;;;5010893;28;20030;-54
2021/12/06 03:02:07;;;;;;;13.82;10.70;;;205.40;2252.80;;;;;;5010527;28;20507;-56
2021/12/06 03:04:34;;;;;;;14.38;9.65;;;205.40;2252.80;;;;;;5010762;28;20057;-54
2021/12/06 03:07:00;;;;;;;12.52;8.90;;;205.40;2252.80;;;;;;4993033;28;20539;-55
2021/12/06 03:09:29;;;;;;;10.63;8.20;;;205.40;2252.80;;;;;;5010685;28;20040;-53
2021/12/06 03:12:16;;;;;;;10.90;9.20;;;205.50;2252.80;;;;;;5011004;28;20022;-54
2021/12/06 03:14:47;;;;;;;12.55;9.68;;;205.50;2252.80;;;;;;5010481;28;20080;-55
2021/12/06 03:17:16;;;;;;;12.88;9.40;;;205.50;2252.80;;;;;;5010527;28;20030;-54
2021/12/06 03:19:42;;;;;;;11.95;9.13;;;205.40;2252.80;;;;;;4993258;28;20026;-55
2021/12/06 03:22:12;;;;;;;13.68;9.85;;;205.30;2252.80;;;;;;5010361;28;20038;-54
2021/12/06 03:24:38;;;;;;;12.45;9.52;;;205.20;2252.80;;;;;;5010087;28;20052;-55
2021/12/06 03:27:05;;;;;;;14.77;12.02;;;205.20;2252.80;;;;;;5010641;28;20450;-54
2021/12/06 03:29:30;;;;;;;18.73;13.27;;;205.10;2252.80;;;;;;5010047;28;20044;-55
2021/12/06 03:31:56;;;;;;;15.55;13.93;;;205.20;2252.80;;;;;;5010403;28;20030;-55
2021/12/06 03:34:26;;;;;;;13.15;10.35;;;205.30;2252.80;;;;;;5010384;28;20030;-56
2021/12/06 03:36:53;;;;;;;12.65;9.70;;;205.20;2252.80;;;;;;5010259;28;20080;-54
2021/12/06 03:39:28;;;;;;;15.80;9.38;;;205.10;2252.80;;;;;;5010172;28;20096;-55
2021/12/06 03:41:59;;;;;;;14.20;10.63;;;205.10;2252.80;;;;;;5010228;28;20033;-54
2021/12/06 03:44:25;;;;;;;12.88;10.63;;;205.20;2252.80;;;;;;5010427;28;20441;-55
2021/12/06 03:46:55;;;;;;;31.35;20.48;;;205.30;2252.80;;;;;;5010032;28;20049;-54
2021/12/06 03:49:21;;;;;;;15.15;11.32;;;205.30;2252.80;;;;;;5010009;28;20038;-55
2021/12/06 03:51:47;;;;;;;33.05;21.45;;;205.20;2252.80;;;;;;5010052;28;20373;-55
2021/12/06 03:54:17;;;;;;;48.53;27.58;;;205.10;2252.80;;;;;;5010177;28;20121;-55
2021/12/06 03:56:44;;;;;;;17.65;13.95;;;205.10;2252.80;;;;;;5010195;28;20033;-54
2021/12/06 03:59:10;;;;;;;15.48;11.75;;;205.00;2252.80;;;;;;5009915;28;20392;-54
2021/12/06 04:01:36;;;;;;;26.88;16.45;;;205.00;2252.80;;;;;;5010124;28;20026;-53
2021/12/06 04:04:04;;;;;;;13.20;11.05;;;204.90;2252.80;;;;;;5010011;28;20041;-54
2021/12/06 04:06:31;;;;;;;14.55;11.25;;;205.00;2252.80;;;;;;5009994;28;20515;-58
2021/12/06 04:08:56;;;;;;;12.88;9.85;;;204.90;2252.80;;;;;;5010217;28;20037;-58
2021/12/06 04:11:22;;;;;;;19.75;12.13;;;204.80;2252.80;;;;;;5010050;28;20046;-54
2021/12/06 04:13:48;;;;;;;19.35;13.57;;;204.90;2252.80;;;;;;5009825;28;20030;-56
2021/12/06 04:16:15;;;;;;;15.43;9.85;;;204.80;2252.80;;;;;;5011939;28;20494;-55
2021/12/06 04:18:41;;;;;;;23.15;14.52;;;180.10;2252.80;;;;;;5013612;28;20033;-55
2021/12/06 04:21:07;;;;;;;19.92;14.40;;;180.10;2252.80;;;;;;5013758;28;20038;-64
2021/12/06 04:23:34;;;;;;;14.57;10.48;;;180.10;2252.80;;;;;;5013621;28;20052;-54
2021/12/06 04:26:00;;;;;;;108.53;84.20;;;180.00;2252.80;;;;;;5013651;28;20103;-55
2021/12/06 04:28:29;;;;;;;19.65;15.43;;;180.00;2252.80;;;;;;5013811;28;20527;-55
2021/12/06 04:30:55;;;;;;;27.83;25.20;;;180.00;2252.80;;;;;;5013780;28;20069;-55
2021/12/06 04:33:21;;;;;;;16.02;14.13;;;180.10;2252.80;;;;;;5013269;28;20504;-55
2021/12/06 04:35:49;;;;;;;15.38;11.50;;;180.10;2252.80;;;;;;5013578;28;20034;-54
2021/12/06 04:38:16;;;;;;;17.88;14.45;;;204.80;2252.80;;;;;;5013421;28;20069;-60
2021/12/06 04:40:43;;;;;;;17.15;12.75;;;180.00;2252.80;;;;;;5013150;28;20468;-57
2021/12/06 04:43:09;;;;;;;16.70;12.05;;;180.10;2252.80;;;;;;5013219;28;20123;-54
2021/12/06 04:45:35;;;;;;;22.75;20.17;;;204.80;2252.80;;;;;;5013408;28;20053;-56
2021/12/06 04:48:02;;;;;;;18.85;13.15;;;180.00;2252.80;;;;;;4995498;28;20040;-55
2021/12/06 04:50:31;;;;;;;16.48;11.35;;;180.10;2252.80;;;;;;5013139;28;20042;-54
2021/12/06 04:53:04;;;;;;;18.40;14.13;;;180.00;2252.80;;;;;;5013107;28;20415;-55
2021/12/06 04:55:35;;;;;;;18.67;12.35;;;179.90;2252.80;;;;;;5013110;28;20026;-55
2021/12/06 04:58:03;;;;;;;17.98;12.27;;;179.90;2252.80;;;;;;5012935;28;20091;-54
2021/12/06 05:00:34;;;;;;;17.23;12.55;;;179.90;2252.80;;;;;;4995353;28;20033;-57
2021/12/06 05:03:02;;;;;;;16.17;10.80;;;179.80;2252.80;;;;;;5012974;28;20038;-63
2021/12/06 05:05:40;;;;;;;22.08;14.27;;;179.90;2252.80;;;;;;5013083;28;20038;-62
2021/12/06 05:08:14;;;;;;;21.02;11.93;;;180.00;2252.80;;;;;;5012927;28;20109;-64
2021/12/06 05:10:40;;;;;;;20.65;12.45;;;179.90;2252.80;;;;;;5012862;28;20038;-64
2021/12/06 05:13:06;;;;;;;18.88;11.88;;;180.00;2252.80;;;;;;5013017;28;20080;-63
2021/12/06 05:15:33;;;;;;;22.13;11.48;;;180.10;2252.80;;;;;;5012796;28;20108;-64
2021/12/06 05:17:59;;;;;;;39.75;33.95;;;180.10;2252.80;;;;;;5012672;28;20022;-64
2021/12/06 05:20:25;;;;;;;48.05;40.63;;;204.80;2252.80;;;;;;5012997;28;20021;-63
2021/12/06 05:22:51;;;;;;;28.98;20.63;;;180.10;2252.80;;;;;;5012268;28;20050;-65
2021/12/06 05:25:17;;;;;;;19.38;12.75;;;180.10;2252.80;;;;;;5012711;28;20034;-68
2021/12/06 05:27:43;;;;;;;20.00;12.68;;;180.10;2252.80;;;;;;5011296;28;20033;-64
2021/12/06 05:30:11;;;;;;;24.95;18.50;;;180.10;2252.80;;;;;;5012202;28;20041;-61
2021/12/06 05:32:38;;;;;;;20.65;15.00;;;204.80;2252.80;;;;;;5012329;28;20388;-59
2021/12/06 05:35:07;;;;;;;21.00;13.27;;;180.10;2252.80;;;;;;5012549;28;20069;-62
2021/12/06 05:37:40;;;;;;;25.15;20.38;;;204.90;2252.80;;;;;;5012357;28;20022;-63
2021/12/06 05:40:09;;;;;;;21.90;17.83;;;204.90;2252.80;;;;;;5012365;28;20033;-62
2021/12/06 05:42:35;;;;;;;21.77;16.48;;;204.80;2252.80;;;;;;5012361;28;20032;-62
2021/12/06 05:45:02;;;;;;;21.70;17.83;;;180.10;2252.80;;;;;;5012010;28;20026;-64
2021/12/06 05:47:28;;;;;;;22.55;18.17;;;180.10;2252.80;;;;;;5011946;28;20029;-62
2021/12/06 05:49:54;;;;;;;25.25;16.83;;;204.80;2252.80;;;;;;5012086;28;20380;-62
2021/12/06 05:52:20;;;;;;;19.55;13.88;;;204.90;2252.80;;;;;;5011850;28;20030;-62
2021/12/06 05:54:46;;;;;;;23.90;16.42;;;204.80;2252.80;;;;;;5012067;28;20052;-62
2021/12/06 05:57:15;;;;;;;29.58;23.45;;;204.80;2252.80;;;;;;5012013;28;20032;-63
2021/12/06 05:59:42;;;;;;;20.77;15.20;;;180.10;2252.80;;;;;;5011873;28;20495;-61
2021/12/06 06:02:09;;;;;;;19.25;13.70;;;204.80;2252.80;;;;;;5011774;28;20083;-62
2021/12/06 06:04:35;;;;;;;18.48;12.65;;;204.80;2252.80;;;;;;5011983;28;20432;-63
2021/12/06 06:07:01;;;;;;;19.75;13.90;;;204.80;2252.80;;;;;;5012259;28;20025;-63
2021/12/06 06:09:27;;;;;;;21.30;14.30;;;204.90;2252.80;;;;;;5011349;28;20045;-60
2021/12/06 06:11:53;;;;;;;20.52;13.73;;;204.90;2252.80;;;;;;5011935;28;20030;-61
2021/12/06 06:14:19;;;;;;;22.38;15.48;;;204.90;2252.80;;;;;;5011648;28;20383;-58
2021/12/06 06:16:50;;;;;;;22.67;15.77;;;204.90;2252.80;;;;;;5011389;28;20162;-61
2021/12/06 06:19:22;;;;;;;23.40;16.00;;;204.90;2252.80;;;;;;5022788;28;20025;-62
2021/12/06 06:21:49;;;;;;;21.85;17.45;;;204.90;2252.80;;;;;;5031064;28;20486;-59
2021/12/06 06:24:15;;;;;;;22.13;14.55;;;205.00;2252.80;;;;;;5031170;28;20049;-63
2021/12/06 06:26:41;;;;;;;18.95;14.27;;;205.00;2252.80;;;;;;5031068;28;20122;-58
2021/12/06 06:29:08;;;;;;;22.40;15.10;;;205.00;2252.80;;;;;;5031073;28;20080;-62
2021/12/06 06:31:34;;;;;;;25.23;19.05;;;205.00;2252.80;;;;;;5031353;28;20029;-64
2021/12/06 06:34:00;;;;;;;160.18;109.63;;;205.10;2252.80;;;;;;5030969;28;20030;-55
2021/12/06 06:36:26;;;;;;;50.65;35.95;;;205.10;2252.80;;;;;;5031338;28;20093;-63
2021/12/06 06:38:51;;;;;;;29.38;20.08;;;205.10;2252.80;;;;;;5012874;28;20467;-63
2021/12/06 06:41:17;;;;;;;30.13;23.10;;;205.10;2252.80;;;;;;5030847;28;20036;-57
2021/12/06 06:43:43;;;;;;;30.17;21.98;;;205.20;2252.80;;;;;;5031183;28;20041;-60
2021/12/06 06:46:09;;;;;;;36.20;23.67;;;205.20;2252.80;;;;;;5030739;28;20025;-59
2021/12/06 06:48:35;;;;;;;42.78;31.67;;;205.10;2252.80;;;;;;5030766;28;20091;-65
2021/12/06 06:51:01;;;;;;;48.72;33.42;;;205.10;2252.80;;;;;;5030581;28;20041;-58
2021/12/06 06:53:27;;;;;;;44.83;31.00;;;205.20;2252.80;;;;;;5030819;28;20033;-64
2021/12/06 06:55:54;;;;;;;46.13;29.90;;;205.20;2252.80;;;;;;5030738;28;20033;-65
2021/12/06 06:58:20;;;;;;;99.93;61.60;;;205.30;2252.80;;;;;;5030465;28;20037;-64
2021/12/06 07:00:47;;;;;;;171.80;114.32;;;205.20;2252.80;;;;;;5030697;28;20038;-64
2021/12/06 07:03:13;;;;;;;172.35;104.68;;;205.20;2252.80;;;;;;5030572;28;20446;-63
2021/12/06 07:05:39;;;;;;;102.63;72.93;;;205.20;2252.80;;;;;;5030533;28;20025;-64
2021/12/06 07:08:06;;;;;;;124.85;85.53;;;205.10;2252.80;;;;;;5030553;28;20403;-61
2021/12/06 07:10:32;;;;;;;138.35;91.75;;;205.20;2252.80;;;;;;5030468;28;20052;-64
2021/12/06 07:13:03;;;;;;;133.52;94.22;;;205.10;2252.80;;;;;;5030301;28;20029;-63
2021/12/06 07:15:32;;;;;;;85.65;59.97;;;205.20;2252.80;;;;;;5030207;28;20034;-65
2021/12/06 07:17:59;;;;;;;81.15;57.30;;;205.10;2252.80;;;;;;5030216;28;20025;-64
2021/12/06 07:20:25;;;;;;;96.82;65.03;;;205.10;2252.80;;;;;;5030563;28;20041;-63
2021/12/06 07:22:52;;;;;;;103.57;69.25;;;204.80;2252.80;;;;;;5029912;28;20483;-63
2021/12/06 07:25:21;;;;;;;122.47;76.35;;;205.00;2252.80;;;;;;5030123;28;20125;-64
2021/12/06 07:27:48;;;;;;;96.40;67.25;;;205.10;2252.80;;;;;;5030371;28;20436;-56
2021/12/06 07:30:15;;;;;;;83.43;54.72;;;205.00;2252.80;;;;;;5030254;28;20044;-64
2021/12/06 07:32:42;;;;;;;97.75;63.15;;;205.10;2252.80;;;;;;5029963;28;20085;-55
2021/12/06 07:35:10;;;;;;;103.93;69.68;;;205.20;2252.80;;;;;;5030089;28;20439;-62
2021/12/06 07:37:36;;;;;;;55.47;40.03;;;205.20;2252.80;;;;;;5030111;28;20460;-63
2021/12/06 07:40:06;;;;;;;55.72;37.83;;;205.20;2252.80;;;;;;5030051;28;20149;-65
2021/12/06 07:42:32;;;;;;;60.78;42.80;;;205.10;2252.80;;;;;;5030080;28;20380;-61
2021/12/06 07:44:58;;;;;;;58.15;42.33;;;205.10;2252.80;;;;;;5029954;28;20022;-63
2021/12/06 07:47:23;;;;;;;77.18;55.90;;;204.90;2252.80;;;;;;5030044;28;20028;-62
2021/12/06 07:49:49;;;;;;;42.55;29.25;;;205.10;2252.80;;;;;;5022932;28;20045;-59
2021/12/06 07:52:15;;;;;;;41.80;28.85;;;205.00;2252.80;;;;;;5029102;28;20021;-57
2021/12/06 07:54:42;;;;;;;51.67;33.97;;;180.10;2252.80;;;;;;5033954;28;20046;-61
2021/12/06 07:57:08;;;;;;;48.70;36.92;;;180.10;2252.80;;;;;;5033841;28;20080;-53
2021/12/06 07:59:35;;;;;;;50.53;35.38;;;205.00;2252.80;;;;;;5034217;28;20033;-61
2021/12/06 08:02:04;;;;;;;53.83;39.58;;;205.10;2252.80;;;;;;5033819;28;20104;-55
2021/12/06 08:04:30;;;;;;;54.08;31.05;;;205.30;2252.80;;;;;;5033756;28;20112;-56
2021/12/06 08:06:56;;;;;;;36.50;23.98;;;205.30;2252.80;;;;;;5034152;28;20064;-61
2021/12/06 08:09:21;;;;;;;60.35;37.88;;;205.20;2252.80;;;;;;5033746;28;20490;-64
2021/12/06 08:11:48;;;;;;;84.05;54.30;;;205.20;2252.80;;;;;;5033666;28;20030;-63
2021/12/06 08:14:13;;;;;;;133.40;106.15;;;205.20;2252.80;;;;;;5022954;28;20091;-63
2021/12/06 08:16:44;;;;;;;66.28;48.05;;;205.00;2252.80;;;;;;5013739;28;20030;-62
2021/12/06 08:19:11;;;;;;;68.07;47.58;;;205.00;2252.80;;;;;;5013658;28;20033;-60
2021/12/06 08:21:38;;;;;;;57.38;42.38;;;205.10;2252.80;;;;;;5013633;28;20034;-59
2021/12/06 08:24:05;;;;;;;68.80;45.78;;;205.10;2252.80;;;;;;5013690;28;20065;-54
2021/12/06 08:26:35;;;;;;;69.18;47.53;;;204.90;2252.80;;;;;;5013503;28;20030;-55
2021/12/06 08:29:06;;;;;;;53.53;35.72;;;180.10;2252.80;;;;;;5027315;28;20038;-57
2021/12/06 08:31:33;;;;;;;74.82;52.63;;;180.00;2252.80;;;;;;5027488;28;20030;-56
2021/12/06 08:34:00;;;;;;;69.95;49.05;;;180.10;2252.80;;;;;;5024636;28;20111;-63
2021/12/06 08:36:26;;;;;;;76.78;51.60;;;180.00;2252.80;;;;;;5023981;28;20036;-56
2021/12/06 08:38:53;;;;;;;90.90;70.13;;;180.10;2252.80;;;;;;5033010;28;20030;-65
2021/12/06 08:41:23;;;;;;;54.63;36.00;;;179.70;2252.80;;;;;;5022992;28;20055;-61
2021/12/06 08:43:49;;;;;;;78.18;56.97;;;179.60;2252.80;;;;;;5020661;28;20033;-63
2021/12/06 08:46:19;;;;;;;55.47;42.30;;;179.40;2252.80;;;;;;5022368;28;20116;-62
2021/12/06 08:48:46;;;;;;;78.82;67.18;;;179.50;2252.80;;;;;;5022708;28;20514;-62
2021/12/06 08:51:23;;;;;;;66.63;49.85;;;179.40;2252.80;;;;;;5021145;28;20133;-64
2021/12/06 08:53:49;;;;;;;67.38;51.90;;;179.20;2252.80;;;;;;5020572;28;20157;-54
2021/12/06 08:56:15;;;;;;;65.53;53.80;;;179.60;2252.80;;;;;;5021144;28;20030;-55
2021/12/06 08:58:42;;;;;;;83.80;60.85;;;179.40;2252.80;;;;;;5021855;28;20033;-55
2021/12/06 09:01:10;;;;;;;107.28;74.30;;;179.80;2252.80;;;;;;5022524;28;20036;-56
2021/12/06 09:03:36;;;;;;;49.30;34.53;;;179.60;2252.80;;;;;;5020916;28;20030;-64
2021/12/06 09:06:06;;;;;;;60.50;46.38;;;179.20;2252.80;;;;;;5021473;28;20021;-56
2021/12/06 09:08:33;;;;;;;64.68;47.25;;;154.40;2252.80;;;;;;5022313;28;20076;-54
2021/12/06 09:10:59;;;;;;;214.25;136.82;;;154.40;2252.80;;;;;;5020996;28;20036;-54
2021/12/06 09:13:28;;;;;;;103.70;65.60;;;179.40;2252.80;;;;;;5021400;28;20100;-54
2021/12/06 09:15:55;;;;;;;137.20;86.68;;;179.50;2252.80;;;;;;5022490;28;20031;-64
2021/12/06 09:18:22;;;;;;;77.95;51.72;;;179.60;2252.80;;;;;;5021158;28;20030;-59
2021/12/06 09:20:49;;;;;;;51.08;34.90;;;179.70;2252.80;;;;;;5020263;28;20456;-62
2021/12/06 09:23:16;;;;;;;35.17;24.27;;;179.70;2252.80;;;;;;5021982;28;20099;-63
2021/12/06 09:25:45;;;;;;;40.03;28.15;;;179.60;2252.80;;;;;;5021467;28;20022;-63
2021/12/06 09:28:15;;;;;;;40.75;25.77;;;179.70;2252.80;;;;;;5020021;28;20091;-65
2021/12/06 09:30:41;;;;;;;40.47;28.77;;;179.70;2252.80;;;;;;5020989;28;20033;-63
2021/12/06 09:33:09;;;;;;;31.73;23.58;;;179.70;2252.80;;;;;;5021552;28;20022;-59
2021/12/06 09:35:39;;;;;;;38.78;25.52;;;179.90;2252.80;;;;;;5020174;28;20026;-64
2021/12/06 09:38:06;;;;;;;26.27;17.25;;;179.70;2252.80;;;;;;5020585;28;20026;-54
2021/12/06 09:40:33;;;;;;;16.15;11.05;;;179.80;2252.80;;;;;;5022140;28;20029;-54
2021/12/06 09:43:02;;;;;;;15.15;11.18;;;179.90;2252.80;;;;;;5020731;28;20030;-54
2021/12/06 09:45:30;;;;;;;21.48;14.98;;;179.80;2252.80;;;;;;5019969;28;20029;-56
2021/12/06 09:47:56;;;;;;;23.48;16.25;;;179.70;2252.80;;;;;;5003707;28;20124;-54
2021/12/06 09:50:27;;;;;;;35.08;22.42;;;179.70;2252.80;;;;;;5020700;28;20042;-53
2021/12/06 09:52:57;;;;;;;36.45;23.38;;;179.70;2252.80;;;;;;5019603;28;20026;-63
2021/12/06 09:55:24;;;;;;;17.77;13.30;;;179.80;2252.80;;;;;;5020628;28;20044;-62
2021/12/06 09:57:50;;;;;;;21.77;18.00;;;179.70;2252.80;;;;;;5021458;28;20033;-64
2021/12/06 10:00:20;;;;;;;15.85;11.52;;;179.70;2252.80;;;;;;5019856;28;20085;-62
2021/12/06 10:02:46;;;;;;;13.63;9.90;;;179.60;2252.80;;;;;;5020104;28;20083;-64
2021/12/06 10:05:12;;;;;;;9.32;6.65;;;179.60;2252.80;;;;;;5021202;28;20422;-62
2021/12/06 10:07:38;;;;;;;12.48;7.43;;;179.60;2252.80;;;;;;5019563;28;20021;-63
2021/12/06 10:10:09;;;;;;;10.18;7.07;;;179.70;2252.80;;;;;;5020271;28;20120;-54
2021/12/06 10:12:35;;;;;;;8.45;4.93;;;179.50;2252.80;;;;;;5021526;28;20029;-55
2021/12/06 10:15:03;;;;;;;19.00;13.45;;;179.50;2252.80;;;;;;5019630;28;20096;-55
2021/12/06 10:17:32;;;;;;;7.00;5.38;;;179.60;2252.80;;;;;;5019298;28;20021;-55
2021/12/06 10:19:58;;;;;;;14.35;10.45;;;179.70;2252.80;;;;;;5031324;28;20498;-55
2021/12/06 10:22:24;;;;;;;7.63;5.50;;;179.70;2252.80;;;;;;5046091;28;20041;-62
2021/12/06 10:24:53;;;;;;;19.23;12.73;;;179.60;2252.80;;;;;;5031226;28;20107;-65
2021/12/06 10:27:19;;;;;;;7.82;6.40;;;179.60;2252.80;;;;;;5031276;28;20097;-64
2021/12/06 10:29:54;;;;;;;51.80;41.40;;;179.50;2252.80;;;;;;5031314;28;20395;-65
2021/12/06 10:32:24;;;;;;;10.85;8.63;;;179.40;2252.80;;;;;;5030959;28;20104;-62
2021/12/06 10:35:16;;;;;;;9.93;6.60;;;179.40;2252.80;;;;;;5030736;28;20025;-63
2021/12/06 10:37:45;;;;;;;15.60;10.70;;;179.40;2252.80;;;;;;5030527;28;20084;-63
2021/12/06 10:40:20;;;;;;;9.70;5.90;;;179.40;2252.80;;;;;;5037977;28;20517;-64
2021/12/06 10:42:49;;;;;;;10.10;7.13;;;179.30;2252.80;;;;;;5011237;28;20057;-65
2021/12/06 10:45:23;;;;;;;12.07;8.85;;;179.40;2252.80;;;;;;5011430;28;20049;-63
2021/12/06 10:48:05;;;;;;;7.20;5.15;;;179.60;2252.80;;;;;;5011280;28;20033;-63
2021/12/06 10:50:31;;;;;;;19.08;13.65;;;179.40;2252.80;;;;;;5011022;28;20041;-64
2021/12/06 10:53:00;;;;;;;11.60;8.13;;;179.40;2252.80;;;;;;5010841;28;20109;-61
2021/12/06 10:55:29;;;;;;;8.85;7.50;;;179.30;2252.80;;;;;;5011083;28;20049;-64
2021/12/06 10:58:03;;;;;;;7.25;5.90;;;179.30;2252.80;;;;;;5011115;28;20036;-64
2021/12/06 11:00:35;;;;;;;;;;;179.20;2252.80;;;;;;5011466;28;20069;-63
2021/12/06 11:03:01;;;;;;;13.68;10.35;;;154.50;2252.80;;;;;;5010661;28;19905;-64
2021/12/06 11:05:30;;;;;;;7.90;5.90;;;154.50;2252.80;;;;;;5010835;28;20428;-55
2021/12/06 11:08:07;;;;;;;9.82;7.75;;;154.40;2252.80;;;;;;5011021;28;20034;-62
2021/12/06 11:10:42;;;;;;;14.40;9.70;;;154.30;2252.80;;;;;;5011041;28;20057;-62
2021/12/06 11:13:25;;;;;;;9.10;7.22;;;154.20;2252.80;;;;;;5010812;28;20068;-64
2021/12/06 11:15:59;;;;;;;7.15;4.88;;;154.30;2252.80;;;;;;5010729;28;20033;-63
2021/12/06 11:18:45;;;;;;;6.65;5.05;;;154.10;2252.80;;;;;;5010605;28;20384;-64
2021/12/06 11:21:29;;;;;;;13.27;7.68;;;154.20;2252.80;;;;;;5010276;28;20069;-63
2021/12/06 11:23:57;;;;;;;7.65;6.07;;;154.30;2252.80;;;;;;5010698;28;20053;-60
2021/12/06 11:26:23;;;;;;;8.85;5.60;;;154.20;2252.80;;;;;;5010536;28;20034;-63
2021/12/06 11:28:49;;;;;;;11.18;5.70;;;154.00;2252.80;;;;;;5010348;28;20097;-56
2021/12/06 11:31:16;;;;;;;9.05;6.70;;;153.90;2252.80;;;;;;5010588;28;20484;-55
2021/12/06 11:33:42;;;;;;;9.93;7.55;;;154.00;2252.80;;;;;;5010450;28;20026;-59
2021/12/06 11:36:34;;;;;;;14.32;8.50;;;154.10;2252.80;;;;;;5010471;28;20032;-61
2021/12/06 11:39:21;;;;;;;27.98;19.50;;;154.00;2252.80;;;;;;5006750;28;20481;-54
2021/12/06 11:41:50;;;;;;;40.22;25.58;;;154.10;2252.80;;;;;;5010074;28;20049;-56
2021/12/06 11:44:26;;;;;;;10.23;7.50;;;153.90;2252.80;;;;;;5010621;28;20030;-56
2021/12/06 11:46:58;;;;;;;22.55;15.68;;;153.90;2252.80;;;;;;5010588;28;20025;-56
2021/12/06 11:49:48;;;;;;;6.95;5.15;;;153.90;2252.80;;;;;;5010238;28;20069;-57
2021/12/06 11:52:19;;;;;;;8.05;6.18;;;153.90;2252.80;;;;;;5010254;28;20108;-54
2021/12/06 11:54:51;;;;;;;9.57;6.70;;;153.90;2252.80;;;;;;5010334;28;20037;-56
2021/12/06 11:57:22;;;;;;;7.25;6.35;;;153.90;2252.80;;;;;;5010220;28;20022;-56
2021/12/06 12:00:03;;;;;;;7.32;6.05;;;154.00;2252.80;;;;;;5010282;28;20033;-57
2021/12/06 12:02:36;;;;;;;8.05;6.82;;;153.80;2252.80;;;;;;5010237;28;20029;-62
2021/12/06 12:05:35;;;;;;;10.93;7.95;;;154.00;2252.80;;;;;;5010231;28;20025;-53
2021/12/06 12:08:07;;;;;;;9.43;6.20;;;153.90;2252.80;;;;;;5009905;28;20512;-53
2021/12/06 12:10:44;;;;;;;24.50;22.15;;;153.90;2252.80;;;;;;5010233;28;20042;-53
2021/12/06 12:13:26;;;;;;;9.23;6.45;;;153.90;2252.80;;;;;;5009942;28;20018;-54
2021/12/06 12:15:54;;;;;;;12.88;10.00;;;154.20;2252.80;;;;;;5010200;28;20034;-58
2021/12/06 12:18:20;;;;;;;15.77;14.20;;;154.40;2252.80;;;;;;5007921;28;20026;-56